createdAt,value
2019-05-07T00:01:51.527Z,4.50
2019-05-07T00:05:53.893Z,5.53
2019-05-07T00:09:56.902Z,6.50
2019-05-07T00:13:58.801Z,8.18
2019-05-07T00:18:02.982Z,4.73
2019-05-07T00:22:04.742Z,7.60
2019-05-07T00:26:06.629Z,6.23
2019-05-07T00:30:09.239Z,5.97
2019-05-07T00:34:12.640Z,5.87
2019-05-07T00:38:16.933Z,6.20
2019-05-07T00:42:32.807Z,6.73
2019-05-07T00:46:35.227Z,7.37
2019-05-07T00:50:38.782Z,7.03
2019-05-07T00:54:42.268Z,6.90
2019-05-07T00:58:44.321Z,8.63
2019-05-07T01:02:47.501Z,6.80
2019-05-07T01:06:49.402Z,16.13
2019-05-07T01:10:52.844Z,26.40
2019-05-07T01:14:55.016Z,21.24
2019-05-07T01:18:57.145Z,17.67
2019-05-07T01:22:59.066Z,11.60
2019-05-07T01:27:04.739Z,8.74
2019-05-07T01:31:06.615Z,8.67
2019-05-07T01:35:13.276Z,7.87
2019-05-07T01:39:15.218Z,8.33
2019-05-07T01:43:18.097Z,9.10
2019-05-07T01:47:20.002Z,9.05
2019-05-07T01:51:22.320Z,9.43
2019-05-07T01:55:24.296Z,10.75
2019-05-07T01:59:26.422Z,7.80
2019-05-07T02:03:32.950Z,7.63
2019-05-07T02:07:36.521Z,9.90
2019-05-07T02:11:42.447Z,6.53
2019-05-07T02:15:57.430Z,6.83
2019-05-07T02:19:48.042Z,6.93
2019-05-07T02:23:52.167Z,6.50
2019-05-07T02:27:53.545Z,9.73
2019-05-07T02:31:55.471Z,9.68
2019-05-07T02:35:58.151Z,8.73
2019-05-07T02:40:04.438Z,5.22
2019-05-07T02:44:06.926Z,9.35
2019-05-07T02:48:09.324Z,8.00
2019-05-07T02:52:13.829Z,6.53
2019-05-07T02:56:15.735Z,5.37
2019-05-07T03:00:19.545Z,7.50
2019-05-07T03:04:24.619Z,5.63
2019-05-07T03:08:27.601Z,11.03
2019-05-07T03:12:33.265Z,5.30
2019-05-07T03:16:42.573Z,5.93
2019-05-07T03:20:46.042Z,6.40
2019-05-07T03:24:52.699Z,7.20
2019-05-07T03:28:55.155Z,7.20
2019-05-07T03:33:07.930Z,13.05
2019-05-07T03:37:13.534Z,7.93
2019-05-07T03:41:15.070Z,8.38
2019-05-07T03:45:23.049Z,8.73
2019-05-07T03:49:29.409Z,8.20
2019-05-07T03:53:33.862Z,13.80
2019-05-07T03:57:34.982Z,11.30
2019-05-07T04:01:36.871Z,5.87
2019-05-07T04:05:38.797Z,6.97
2019-05-07T04:09:43.484Z,5.90
2019-05-07T04:13:44.523Z,9.63
2019-05-07T04:17:46.453Z,8.70
2019-05-07T04:21:48.358Z,9.90
2019-05-07T04:25:53.197Z,8.83
2019-05-07T04:29:55.494Z,9.10
2019-05-07T04:33:58.989Z,9.63
2019-05-07T04:38:06.161Z,9.83
2019-05-07T04:42:05.191Z,9.63
2019-05-07T04:46:07.099Z,10.20
2019-05-07T04:50:13.953Z,9.60
2019-05-07T04:54:15.074Z,10.90
2019-05-07T04:58:16.960Z,7.80
2019-05-07T05:02:23.057Z,9.87
2019-05-07T05:06:25.047Z,13.63
2019-05-07T05:10:27.005Z,11.53
2019-05-07T05:14:28.945Z,10.70
2019-05-07T05:18:32.817Z,13.63
2019-05-07T05:22:39.602Z,13.37
2019-05-07T05:26:41.984Z,9.67
2019-05-07T05:30:46.943Z,9.90
2019-05-07T05:34:48.840Z,12.67
2019-05-07T05:38:52.808Z,11.97
2019-05-07T05:43:04.919Z,15.30
2019-05-07T05:47:07.770Z,11.00
2019-05-07T05:51:17.057Z,15.47
2019-05-07T05:55:19.619Z,13.77
2019-05-07T05:59:47.966Z,11.83
2019-05-07T06:03:43.106Z,14.57
2019-05-07T06:07:46.687Z,14.67
2019-05-07T06:11:51.999Z,13.90
2019-05-07T06:15:58.783Z,13.77
2019-05-07T06:20:08.263Z,17.27
2019-05-07T06:24:11.919Z,14.33
2019-05-07T06:28:14.868Z,12.20
2019-05-07T06:32:19.385Z,13.73
2019-05-07T06:36:22.234Z,12.73
2019-05-07T06:40:29.137Z,16.63
2019-05-07T06:44:27.935Z,13.63
2019-05-07T06:48:40.842Z,16.70
2019-05-07T06:52:35.087Z,11.90
2019-05-07T06:56:36.998Z,11.87
2019-05-07T07:00:42.285Z,13.43
2019-05-07T07:04:46.920Z,13.47
2019-05-07T07:08:56.141Z,11.07
2019-05-07T07:12:58.111Z,11.07
2019-05-07T07:17:02.230Z,11.80
2019-05-07T07:21:03.964Z,13.50
2019-05-07T07:25:07.368Z,11.13
2019-05-07T07:29:12.707Z,11.27
2019-05-07T07:33:16.643Z,12.10
2019-05-07T07:37:20.195Z,9.43
2019-05-07T07:41:38.727Z,10.37
2019-05-07T07:45:42.008Z,10.37
2019-05-07T07:49:44.373Z,11.27
2019-05-07T07:53:46.273Z,8.38
2019-05-07T07:58:08.163Z,13.68
2019-05-07T08:02:22.814Z,10.67
2019-05-07T08:06:25.651Z,11.87
2019-05-07T08:10:27.536Z,9.30
2019-05-07T08:14:29.437Z,10.83
2019-05-07T08:18:32.781Z,9.73
2019-05-07T08:22:34.980Z,10.13
2019-05-07T08:26:36.886Z,8.57
2019-05-07T08:30:38.844Z,9.77
2019-05-07T08:34:54.535Z,10.70
2019-05-07T08:38:57.406Z,11.70
2019-05-07T08:42:59.713Z,13.10
2019-05-07T08:47:07.312Z,9.20
2019-05-07T08:51:09.242Z,9.40
2019-05-07T08:55:12.751Z,9.37
2019-05-07T08:59:15.787Z,10.00
2019-05-07T09:03:22.543Z,8.97
2019-05-07T09:07:23.521Z,6.77
2019-05-07T09:11:25.453Z,9.37
2019-05-07T09:15:27.387Z,7.23
2019-05-07T09:19:29.299Z,8.30
2019-05-07T09:23:31.951Z,7.77
2019-05-07T09:27:42.431Z,8.40
2019-05-07T09:31:47.237Z,7.23
2019-05-07T09:35:52.699Z,8.97
2019-05-07T09:39:54.575Z,8.23
2019-05-07T09:43:58.599Z,7.33
2019-05-07T09:48:02.603Z,6.97
2019-05-07T09:52:06.042Z,5.33
2019-05-07T09:56:08.018Z,5.60
2019-05-07T10:00:12.369Z,4.03
2019-05-07T10:04:14.663Z,9.37
2019-05-07T10:08:16.650Z,5.50
2019-05-07T10:12:18.307Z,8.90
2019-05-07T10:16:34.174Z,5.87
2019-05-07T10:20:36.256Z,8.20
2019-05-07T10:24:38.691Z,9.90
2019-05-07T10:28:42.389Z,8.20
2019-05-07T10:32:44.439Z,7.10
2019-05-07T10:36:46.344Z,7.87
2019-05-07T10:40:48.382Z,8.30
2019-05-07T10:44:54.642Z,7.90
2019-05-07T10:49:01.991Z,6.17
2019-05-07T10:53:05.019Z,8.25
2019-05-07T10:57:06.996Z,7.97
2019-05-07T11:01:08.966Z,10.27
2019-05-07T11:05:12.956Z,6.73
2019-05-07T11:09:14.953Z,6.53
2019-05-07T11:13:16.868Z,9.47
2019-05-07T11:17:22.381Z,7.43
2019-05-07T11:21:30.224Z,7.00
2019-05-07T11:25:35.313Z,8.07
2019-05-07T11:29:37.225Z,5.80
2019-05-07T11:33:41.675Z,9.70
2019-05-07T11:37:44.389Z,9.57
2019-05-07T11:42:04.130Z,10.07
2019-05-07T11:46:07.699Z,6.07
2019-05-07T11:50:18.153Z,5.87
2019-05-07T11:54:20.111Z,6.23
2019-05-07T11:58:22.886Z,5.33
2019-05-07T12:02:24.808Z,6.60
2019-05-07T12:06:26.711Z,7.30
2019-05-07T12:10:28.626Z,8.93
2019-05-07T12:14:32.516Z,5.67
2019-05-07T12:18:34.135Z,8.80
2019-05-07T12:22:48.460Z,9.73
2019-05-07T12:26:52.243Z,4.97
2019-05-07T12:30:56.489Z,6.33
2019-05-07T12:35:02.289Z,5.20
2019-05-07T12:39:12.717Z,6.12
2019-05-07T12:43:14.904Z,9.27
2019-05-07T12:47:16.814Z,8.10
2019-05-07T12:51:31.656Z,7.50
2019-05-07T12:55:26.615Z,7.57
2019-05-07T12:59:28.680Z,6.87
2019-05-07T13:03:32.294Z,8.47
2019-05-07T13:07:34.090Z,7.53
2019-05-07T13:11:35.996Z,3.90
2019-05-07T13:15:37.925Z,7.47
2019-05-07T13:19:41.870Z,7.80
2019-05-07T13:23:43.520Z,6.90
2019-05-07T13:27:45.430Z,6.97
2019-05-07T13:31:53.913Z,8.70
2019-05-07T13:35:54.205Z,4.50
2019-05-07T13:40:02.669Z,5.80
2019-05-07T13:44:06.434Z,6.72
2019-05-07T13:48:12.925Z,7.33
2019-05-07T13:52:15.976Z,5.77
2019-05-07T13:56:18.321Z,8.57
2019-05-07T14:00:28.564Z,8.63
2019-05-07T14:04:32.523Z,5.30
2019-05-07T14:08:36.026Z,11.43
2019-05-07T14:12:38.130Z,6.60
2019-05-07T14:16:44.682Z,12.00
2019-05-07T14:20:43.846Z,9.20
2019-05-07T14:24:45.729Z,7.50
2019-05-07T14:28:48.546Z,8.88
2019-05-07T14:32:53.375Z,7.30
2019-05-07T14:36:56.949Z,8.47
2019-05-07T14:41:00.158Z,7.95
2019-05-07T14:45:05.460Z,9.48
2019-05-07T14:49:07.545Z,11.13
2019-05-07T14:53:11.793Z,8.23
2019-05-07T14:57:13.174Z,6.33
2019-05-07T15:01:15.381Z,6.20
2019-05-07T15:05:17.731Z,5.70
2019-05-07T15:09:19.800Z,7.90
2019-05-07T15:13:22.150Z,7.00
2019-05-07T15:17:26.735Z,4.43
2019-05-07T15:21:28.795Z,7.20
2019-05-07T15:25:31.995Z,7.92
2019-05-07T15:29:34.062Z,8.43
2019-05-07T15:33:36.079Z,5.03
2019-05-07T15:37:38.060Z,5.03
2019-05-07T15:41:42.335Z,4.80
2019-05-07T15:45:43.843Z,7.47
2019-05-07T15:49:46.727Z,7.37
2019-05-07T15:53:55.966Z,6.73
2019-05-07T15:57:58.714Z,5.87
2019-05-07T16:02:02.906Z,6.67
2019-05-07T16:06:05.296Z,7.75
2019-05-07T16:10:07.443Z,6.10
2019-05-07T16:14:17.182Z,7.97
2019-05-07T16:18:29.862Z,6.10
2019-05-07T16:22:33.408Z,5.20
2019-05-07T16:26:35.327Z,7.53
2019-05-07T16:30:37.244Z,5.70
2019-05-07T16:34:39.190Z,8.27
2019-05-07T16:38:41.979Z,7.00
2019-05-07T16:42:43.944Z,7.80
2019-05-07T16:46:46.821Z,6.03
2019-05-07T16:50:48.737Z,5.33
2019-05-07T16:54:52.202Z,3.27
2019-05-07T16:59:02.810Z,6.60
2019-05-07T17:03:07.573Z,4.63
2019-05-07T17:07:13.203Z,6.53
2019-05-07T17:11:14.727Z,4.53
2019-05-07T17:15:17.173Z,4.28
2019-05-07T17:19:19.764Z,5.33
2019-05-07T17:23:22.634Z,9.27
2019-05-07T17:27:24.635Z,6.10
2019-05-07T17:31:26.546Z,4.63
2019-05-07T17:35:28.446Z,6.03
2019-05-07T17:39:32.135Z,7.43
2019-05-07T17:43:34.053Z,5.07
2019-05-07T17:47:35.995Z,9.03
2019-05-07T17:51:44.547Z,7.83
2019-05-07T17:55:46.512Z,13.27
2019-05-07T17:59:48.688Z,3.10
2019-05-07T18:03:52.040Z,3.03
2019-05-07T18:07:53.972Z,5.83
2019-05-07T18:11:55.887Z,4.08
2019-05-07T18:15:59.480Z,2.98
2019-05-07T18:20:02.507Z,4.70
2019-05-07T18:24:13.789Z,6.78
2019-05-07T18:28:09.354Z,5.77
2019-05-07T18:32:12.441Z,3.90
2019-05-07T18:36:14.454Z,4.00
2019-05-07T18:40:16.356Z,5.47
2019-05-07T18:44:18.682Z,4.17
2019-05-07T18:48:22.394Z,3.33
2019-05-07T18:52:24.358Z,5.33
2019-05-07T18:56:26.243Z,4.53
2019-05-07T19:00:31.645Z,5.10
2019-05-07T19:04:33.443Z,6.53
2019-05-07T19:08:36.050Z,3.90
2019-05-07T19:12:41.974Z,3.23
2019-05-07T19:16:43.331Z,3.73
2019-05-07T19:20:45.237Z,3.87
2019-05-07T19:24:48.162Z,3.53
2019-05-07T19:28:50.239Z,3.90
2019-05-07T19:32:52.407Z,6.00
2019-05-07T19:36:54.282Z,6.50
2019-05-07T19:40:56.185Z,4.22
2019-05-07T19:44:59.133Z,4.28
2019-05-07T19:49:02.758Z,4.50
2019-05-07T19:53:04.918Z,4.65
2019-05-07T19:57:07.652Z,4.13
2019-05-07T20:01:12.137Z,5.60
2019-05-07T20:05:14.238Z,4.73
2019-05-07T20:09:18.725Z,5.77
2019-05-07T20:13:20.619Z,6.10
2019-05-07T20:17:22.500Z,5.70
2019-05-07T20:21:24.481Z,4.63
2019-05-07T20:25:26.367Z,5.03
2019-05-07T20:29:28.265Z,4.30
2019-05-07T20:33:32.542Z,7.50
2019-05-07T20:37:33.791Z,3.87
2019-05-07T20:41:35.925Z,3.93
2019-05-07T20:45:38.086Z,5.27
2019-05-07T20:49:39.969Z,6.30
2019-05-07T20:53:59.004Z,4.30
2019-05-07T20:58:03.133Z,6.83
2019-05-07T21:02:05.688Z,5.25
2019-05-07T21:06:07.615Z,6.10
2019-05-07T21:10:09.630Z,5.27
2019-05-07T21:14:12.100Z,8.53
2019-05-07T21:18:14.223Z,4.73
2019-05-07T21:22:16.087Z,6.47
2019-05-07T21:26:17.969Z,6.67
2019-05-07T21:30:22.189Z,5.03
2019-05-07T21:34:24.262Z,6.23
2019-05-07T21:38:26.160Z,4.73
2019-05-07T21:42:28.054Z,7.53
2019-05-07T21:46:29.953Z,6.27
2019-05-07T21:50:32.169Z,5.80
2019-05-07T21:54:43.502Z,6.97
2019-05-07T21:58:49.383Z,8.05
2019-05-07T22:02:52.708Z,6.67
2019-05-07T22:06:55.520Z,8.53
2019-05-07T22:10:57.507Z,5.28
2019-05-07T22:14:59.405Z,8.80
2019-05-07T22:19:02.820Z,9.37
2019-05-07T22:23:04.767Z,5.72
2019-05-07T22:27:06.805Z,5.53
2019-05-07T22:31:13.335Z,5.00
2019-05-07T22:35:25.596Z,6.53
2019-05-07T22:39:32.715Z,6.43
2019-05-07T22:43:36.351Z,7.13
2019-05-07T22:47:38.233Z,7.43
2019-05-07T22:51:40.131Z,6.30
2019-05-07T22:55:42.032Z,10.50
2019-05-07T22:59:43.932Z,5.67
2019-05-07T23:03:45.886Z,6.97
2019-05-07T23:07:49.090Z,9.83
2019-05-07T23:11:52.593Z,6.80
2019-05-07T23:15:54.579Z,6.97
2019-05-07T23:19:56.483Z,7.60
2019-05-07T23:23:58.364Z,6.53
2019-05-07T23:28:04.856Z,8.67
2019-05-07T23:32:03.882Z,6.78
2019-05-07T23:36:06.934Z,7.22
2019-05-07T23:40:25.566Z,10.17
2019-05-07T23:44:27.464Z,7.90
2019-05-07T23:48:29.377Z,9.73
2019-05-07T23:52:31.275Z,4.83
2019-05-07T23:56:33.167Z,6.80
